sensor_id;sensor_type;location;lat;lon;timestamp;P1;durP1;ratioP1;P2;durP2;ratioP2
24485;SDS011;13449;49.374;8.584;2023-06-14T00:02:03;3.90;;;2.78;;
24485;SDS011;13449;49.374;8.584;2023-06-14T00:04:30;4.72;;;2.35;;
24485;SDS011;13449;49.374;8.584;2023-06-14T00:06:59;6.93;;;2.92;;
24485;SDS011;13449;49.374;8.584;2023-06-14T00:09:26;3.15;;;2.33;;
24485;SDS011;13449;49.374;8.584;2023-06-14T00:11:53;4.25;;;2.72;;
24485;SDS011;13449;49.374;8.584;2023-06-14T00:14:19;3.67;;;2.90;;
24485;SDS011;13449;49.374;8.584;2023-06-14T00:16:46;5.00;;;3.83;;
24485;SDS011;13449;49.374;8.584;2023-06-14T00:19:14;9.05;;;2.85;;
24485;SDS011;13449;49.374;8.584;2023-06-14T00:21:40;4.00;;;2.85;;
24485;SDS011;13449;49.374;8.584;2023-06-14T00:24:07;3.28;;;2.38;;
24485;SDS011;13449;49.374;8.584;2023-06-14T00:26:34;6.15;;;2.83;;
24485;SDS011;13449;49.374;8.584;2023-06-14T00:29:01;3.25;;;2.60;;
24485;SDS011;13449;49.374;8.584;2023-06-14T00:31:27;7.00;;;3.03;;
24485;SDS011;13449;49.374;8.584;2023-06-14T00:33:54;4.65;;;3.10;;
24485;SDS011;13449;49.374;8.584;2023-06-14T00:36:20;6.30;;;2.80;;
24485;SDS011;13449;49.374;8.584;2023-06-14T00:38:49;4.72;;;2.85;;
24485;SDS011;13449;49.374;8.584;2023-06-14T00:41:16;10.95;;;2.78;;
24485;SDS011;13449;49.374;8.584;2023-06-14T00:43:42;3.30;;;2.92;;
24485;SDS011;13449;49.374;8.584;2023-06-14T00:46:09;3.83;;;3.00;;
24485;SDS011;13449;49.374;8.584;2023-06-14T00:48:36;3.38;;;2.50;;
24485;SDS011;13449;49.374;8.584;2023-06-14T00:51:06;8.80;;;2.65;;
24485;SDS011;13449;49.374;8.584;2023-06-14T00:53:33;8.45;;;3.08;;
24485;SDS011;13449;49.374;8.584;2023-06-14T00:56:02;7.68;;;2.95;;
24485;SDS011;13449;49.374;8.584;2023-06-14T00:58:29;5.95;;;3.00;;
24485;SDS011;13449;49.374;8.584;2023-06-14T01:00:56;3.78;;;2.80;;
24485;SDS011;13449;49.374;8.584;2023-06-14T01:03:24;3.05;;;2.75;;
24485;SDS011;13449;49.374;8.584;2023-06-14T01:05:59;3.47;;;2.47;;
24485;SDS011;13449;49.374;8.584;2023-06-14T01:09:08;20.48;;;3.55;;
24485;SDS011;13449;49.374;8.584;2023-06-14T01:12:11;3.15;;;2.55;;
24485;SDS011;13449;49.374;8.584;2023-06-14T01:17:14;2.58;;;2.33;;
24485;SDS011;13449;49.374;8.584;2023-06-14T01:19:43;4.05;;;3.25;;
24485;SDS011;13449;49.374;8.584;2023-06-14T01:22:12;11.38;;;2.80;;
24485;SDS011;13449;49.374;8.584;2023-06-14T01:24:41;2.85;;;2.10;;
24485;SDS011;13449;49.374;8.584;2023-06-14T01:27:11;6.57;;;2.60;;
24485;SDS011;13449;49.374;8.584;2023-06-14T01:29:38;2.55;;;2.35;;
24485;SDS011;13449;49.374;8.584;2023-06-14T01:32:11;3.70;;;2.40;;
24485;SDS011;13449;49.374;8.584;2023-06-14T01:34:38;6.43;;;3.42;;
24485;SDS011;13449;49.374;8.584;2023-06-14T01:37:05;5.85;;;2.53;;
24485;SDS011;13449;49.374;8.584;2023-06-14T01:39:32;11.50;;;3.10;;
24485;SDS011;13449;49.374;8.584;2023-06-14T01:41:59;8.20;;;3.03;;
24485;SDS011;13449;49.374;8.584;2023-06-14T01:44:26;5.85;;;3.22;;
24485;SDS011;13449;49.374;8.584;2023-06-14T01:46:54;3.17;;;2.60;;
24485;SDS011;13449;49.374;8.584;2023-06-14T01:49:21;7.07;;;2.70;;
24485;SDS011;13449;49.374;8.584;2023-06-14T01:51:48;3.20;;;2.55;;
24485;SDS011;13449;49.374;8.584;2023-06-14T01:54:19;9.73;;;2.88;;
24485;SDS011;13449;49.374;8.584;2023-06-14T01:56:45;4.43;;;3.20;;
24485;SDS011;13449;49.374;8.584;2023-06-14T01:59:12;7.95;;;2.67;;
24485;SDS011;13449;49.374;8.584;2023-06-14T02:01:42;6.05;;;3.42;;
24485;SDS011;13449;49.374;8.584;2023-06-14T02:04:11;5.18;;;3.45;;
24485;SDS011;13449;49.374;8.584;2023-06-14T02:06:41;6.60;;;2.78;;
24485;SDS011;13449;49.374;8.584;2023-06-14T02:09:07;5.15;;;3.20;;
24485;SDS011;13449;49.374;8.584;2023-06-14T02:11:33;4.13;;;3.00;;
24485;SDS011;13449;49.374;8.584;2023-06-14T02:14:00;12.20;;;3.35;;
24485;SDS011;13449;49.374;8.584;2023-06-14T02:16:27;6.82;;;3.20;;
24485;SDS011;13449;49.374;8.584;2023-06-14T02:18:55;5.35;;;2.92;;
24485;SDS011;13449;49.374;8.584;2023-06-14T02:21:24;3.63;;;2.80;;
24485;SDS011;13449;49.374;8.584;2023-06-14T02:23:51;5.25;;;3.03;;
24485;SDS011;13449;49.374;8.584;2023-06-14T02:26:18;2.47;;;2.28;;
24485;SDS011;13449;49.374;8.584;2023-06-14T02:28:44;5.15;;;3.05;;
24485;SDS011;13449;49.374;8.584;2023-06-14T02:31:11;4.18;;;2.80;;
24485;SDS011;13449;49.374;8.584;2023-06-14T02:33:39;4.32;;;3.08;;
24485;SDS011;13449;49.374;8.584;2023-06-14T02:36:06;11.55;;;3.17;;
24485;SDS011;13449;49.374;8.584;2023-06-14T02:38:33;4.15;;;2.70;;
24485;SDS011;13449;49.374;8.584;2023-06-14T02:40:59;6.50;;;2.47;;
24485;SDS011;13449;49.374;8.584;2023-06-14T02:43:28;4.78;;;2.75;;
24485;SDS011;13449;49.374;8.584;2023-06-14T02:45:57;8.55;;;3.00;;
24485;SDS011;13449;49.374;8.584;2023-06-14T02:48:27;7.65;;;2.78;;
24485;SDS011;13449;49.374;8.584;2023-06-14T02:50:56;4.65;;;2.83;;
24485;SDS011;13449;49.374;8.584;2023-06-14T02:53:23;3.55;;;2.30;;
24485;SDS011;13449;49.374;8.584;2023-06-14T02:55:49;7.43;;;3.25;;
24485;SDS011;13449;49.374;8.584;2023-06-14T02:58:16;4.65;;;2.55;;
24485;SDS011;13449;49.374;8.584;2023-06-14T03:00:44;3.95;;;2.53;;
24485;SDS011;13449;49.374;8.584;2023-06-14T03:03:11;4.72;;;2.63;;
24485;SDS011;13449;49.374;8.584;2023-06-14T03:05:46;6.50;;;2.97;;
24485;SDS011;13449;49.374;8.584;2023-06-14T03:08:16;3.13;;;2.25;;
24485;SDS011;13449;49.374;8.584;2023-06-14T03:10:46;3.85;;;2.70;;
24485;SDS011;13449;49.374;8.584;2023-06-14T03:13:13;4.25;;;2.20;;
24485;SDS011;13449;49.374;8.584;2023-06-14T03:15:40;4.07;;;2.55;;
24485;SDS011;13449;49.374;8.584;2023-06-14T03:18:08;4.25;;;3.30;;
24485;SDS011;13449;49.374;8.584;2023-06-14T03:20:35;6.65;;;3.10;;
24485;SDS011;13449;49.374;8.584;2023-06-14T03:23:02;4.93;;;3.17;;
24485;SDS011;13449;49.374;8.584;2023-06-14T03:25:35;7.28;;;3.05;;
24485;SDS011;13449;49.374;8.584;2023-06-14T03:28:01;5.50;;;3.50;;
24485;SDS011;13449;49.374;8.584;2023-06-14T03:30:31;5.07;;;3.58;;
24485;SDS011;13449;49.374;8.584;2023-06-14T03:35:31;4.35;;;3.67;;
24485;SDS011;13449;49.374;8.584;2023-06-14T03:37:57;7.85;;;4.05;;
24485;SDS011;13449;49.374;8.584;2023-06-14T03:40:24;4.57;;;3.20;;
24485;SDS011;13449;49.374;8.584;2023-06-14T03:42:53;4.30;;;3.08;;
24485;SDS011;13449;49.374;8.584;2023-06-14T03:45:20;2.63;;;2.40;;
24485;SDS011;13449;49.374;8.584;2023-06-14T03:47:47;8.90;;;3.83;;
24485;SDS011;13449;49.374;8.584;2023-06-14T03:50:14;7.75;;;3.00;;
24485;SDS011;13449;49.374;8.584;2023-06-14T03:52:44;4.72;;;3.50;;
24485;SDS011;13449;49.374;8.584;2023-06-14T03:55:11;10.52;;;3.10;;
24485;SDS011;13449;49.374;8.584;2023-06-14T03:57:44;9.43;;;3.63;;
24485;SDS011;13449;49.374;8.584;2023-06-14T04:00:13;5.95;;;3.40;;
24485;SDS011;13449;49.374;8.584;2023-06-14T04:02:41;8.15;;;3.78;;
24485;SDS011;13449;49.374;8.584;2023-06-14T04:05:08;2.88;;;2.67;;
24485;SDS011;13449;49.374;8.584;2023-06-14T04:07:35;4.32;;;2.92;;
24485;SDS011;13449;49.374;8.584;2023-06-14T04:10:06;14.35;;;3.15;;
24485;SDS011;13449;49.374;8.584;2023-06-14T04:12:34;4.88;;;3.25;;
24485;SDS011;13449;49.374;8.584;2023-06-14T04:15:00;3.72;;;3.35;;
24485;SDS011;13449;49.374;8.584;2023-06-14T04:17:45;8.68;;;3.78;;
24485;SDS011;13449;49.374;8.584;2023-06-14T04:20:12;5.13;;;3.08;;
24485;SDS011;13449;49.374;8.584;2023-06-14T04:22:39;4.93;;;3.65;;
24485;SDS011;13449;49.374;8.584;2023-06-14T04:25:07;8.48;;;4.15;;
24485;SDS011;13449;49.374;8.584;2023-06-14T04:27:34;9.02;;;3.67;;
24485;SDS011;13449;49.374;8.584;2023-06-14T04:30:02;4.82;;;2.85;;
24485;SDS011;13449;49.374;8.584;2023-06-14T04:32:29;9.20;;;3.35;;
24485;SDS011;13449;49.374;8.584;2023-06-14T04:35:00;6.82;;;3.38;;
24485;SDS011;13449;49.374;8.584;2023-06-14T04:37:28;11.15;;;4.03;;
24485;SDS011;13449;49.374;8.584;2023-06-14T04:39:59;9.65;;;2.92;;
24485;SDS011;13449;49.374;8.584;2023-06-14T04:42:25;6.57;;;3.50;;
24485;SDS011;13449;49.374;8.584;2023-06-14T04:44:56;4.70;;;3.42;;
24485;SDS011;13449;49.374;8.584;2023-06-14T04:47:23;9.88;;;4.10;;
24485;SDS011;13449;49.374;8.584;2023-06-14T04:49:58;4.72;;;3.05;;
24485;SDS011;13449;49.374;8.584;2023-06-14T04:52:26;5.37;;;3.77;;
24485;SDS011;13449;49.374;8.584;2023-06-14T04:54:56;9.35;;;3.22;;
24485;SDS011;13449;49.374;8.584;2023-06-14T04:57:26;4.70;;;3.15;;
24485;SDS011;13449;49.374;8.584;2023-06-14T04:59:52;12.10;;;3.10;;
24485;SDS011;13449;49.374;8.584;2023-06-14T05:02:24;5.35;;;3.08;;
24485;SDS011;13449;49.374;8.584;2023-06-14T05:04:51;9.65;;;3.58;;
24485;SDS011;13449;49.374;8.584;2023-06-14T05:07:18;4.47;;;2.90;;
24485;SDS011;13449;49.374;8.584;2023-06-14T05:09:45;31.48;;;4.05;;
24485;SDS011;13449;49.374;8.584;2023-06-14T05:12:14;13.88;;;4.20;;
24485;SDS011;13449;49.374;8.584;2023-06-14T05:14:44;9.07;;;3.22;;
24485;SDS011;13449;49.374;8.584;2023-06-14T05:17:14;6.93;;;3.97;;
24485;SDS011;13449;49.374;8.584;2023-06-14T05:19:40;5.97;;;3.78;;
24485;SDS011;13449;49.374;8.584;2023-06-14T05:22:12;8.00;;;3.97;;
24485;SDS011;13449;49.374;8.584;2023-06-14T05:24:38;5.18;;;3.45;;
24485;SDS011;13449;49.374;8.584;2023-06-14T05:27:05;8.43;;;3.83;;
24485;SDS011;13449;49.374;8.584;2023-06-14T05:29:32;7.13;;;2.65;;
24485;SDS011;13449;49.374;8.584;2023-06-14T05:31:58;5.10;;;3.30;;
24485;SDS011;13449;49.374;8.584;2023-06-14T05:34:27;11.55;;;3.15;;
24485;SDS011;13449;49.374;8.584;2023-06-14T05:36:54;4.72;;;2.83;;
24485;SDS011;13449;49.374;8.584;2023-06-14T05:39:22;15.07;;;3.78;;
24485;SDS011;13449;49.374;8.584;2023-06-14T05:41:51;24.77;;;4.03;;
24485;SDS011;13449;49.374;8.584;2023-06-14T05:44:17;6.13;;;3.70;;
24485;SDS011;13449;49.374;8.584;2023-06-14T05:46:46;7.72;;;3.70;;
24485;SDS011;13449;49.374;8.584;2023-06-14T05:49:13;7.13;;;3.28;;
24485;SDS011;13449;49.374;8.584;2023-06-14T05:51:39;6.50;;;3.53;;
24485;SDS011;13449;49.374;8.584;2023-06-14T05:54:08;6.60;;;3.47;;
24485;SDS011;13449;49.374;8.584;2023-06-14T05:56:35;7.13;;;3.45;;
24485;SDS011;13449;49.374;8.584;2023-06-14T05:59:01;8.68;;;3.72;;
24485;SDS011;13449;49.374;8.584;2023-06-14T06:01:31;8.82;;;3.67;;
24485;SDS011;13449;49.374;8.584;2023-06-14T06:04:00;8.18;;;3.28;;
24485;SDS011;13449;49.374;8.584;2023-06-14T06:06:26;5.38;;;3.80;;
24485;SDS011;13449;49.374;8.584;2023-06-14T06:08:53;3.75;;;3.28;;
24485;SDS011;13449;49.374;8.584;2023-06-14T06:11:19;6.00;;;3.35;;
24485;SDS011;13449;49.374;8.584;2023-06-14T06:13:46;9.48;;;3.15;;
24485;SDS011;13449;49.374;8.584;2023-06-14T06:16:12;7.35;;;4.25;;
24485;SDS011;13449;49.374;8.584;2023-06-14T06:18:39;10.20;;;3.20;;
24485;SDS011;13449;49.374;8.584;2023-06-14T06:21:07;15.98;;;4.03;;
24485;SDS011;13449;49.374;8.584;2023-06-14T06:23:34;7.53;;;4.05;;
24485;SDS011;13449;49.374;8.584;2023-06-14T06:26:01;5.05;;;3.58;;
24485;SDS011;13449;49.374;8.584;2023-06-14T06:28:28;6.25;;;3.15;;
24485;SDS011;13449;49.374;8.584;2023-06-14T06:30:57;7.90;;;3.78;;
24485;SDS011;13449;49.374;8.584;2023-06-14T06:33:24;11.65;;;3.90;;
24485;SDS011;13449;49.374;8.584;2023-06-14T06:35:50;6.03;;;3.85;;
24485;SDS011;13449;49.374;8.584;2023-06-14T06:38:17;4.22;;;3.30;;
24485;SDS011;13449;49.374;8.584;2023-06-14T06:40:46;12.70;;;3.63;;
24485;SDS011;13449;49.374;8.584;2023-06-14T06:43:13;6.05;;;3.45;;
24485;SDS011;13449;49.374;8.584;2023-06-14T06:45:40;4.80;;;3.42;;
24485;SDS011;13449;49.374;8.584;2023-06-14T06:48:06;21.17;;;4.35;;
24485;SDS011;13449;49.374;8.584;2023-06-14T06:50:33;8.23;;;4.32;;
24485;SDS011;13449;49.374;8.584;2023-06-14T06:52:59;5.70;;;3.30;;
24485;SDS011;13449;49.374;8.584;2023-06-14T06:55:26;5.50;;;3.35;;
24485;SDS011;13449;49.374;8.584;2023-06-14T06:57:57;9.35;;;3.55;;
24485;SDS011;13449;49.374;8.584;2023-06-14T07:00:23;9.65;;;2.92;;
24485;SDS011;13449;49.374;8.584;2023-06-14T07:05:31;4.18;;;3.47;;
24485;SDS011;13449;49.374;8.584;2023-06-14T07:07:58;4.10;;;3.03;;
24485;SDS011;13449;49.374;8.584;2023-06-14T07:10:25;7.80;;;3.15;;
24485;SDS011;13449;49.374;8.584;2023-06-14T07:12:54;3.03;;;2.50;;
24485;SDS011;13449;49.374;8.584;2023-06-14T07:15:20;7.00;;;2.83;;
24485;SDS011;13449;49.374;8.584;2023-06-14T07:17:47;6.15;;;3.10;;
24485;SDS011;13449;49.374;8.584;2023-06-14T07:20:13;10.23;;;3.45;;
24485;SDS011;13449;49.374;8.584;2023-06-14T07:22:41;10.05;;;3.13;;
24485;SDS011;13449;49.374;8.584;2023-06-14T07:25:11;4.00;;;2.88;;
24485;SDS011;13449;49.374;8.584;2023-06-14T07:27:44;5.40;;;3.30;;
24485;SDS011;13449;49.374;8.584;2023-06-14T07:30:14;4.82;;;3.40;;
24485;SDS011;13449;49.374;8.584;2023-06-14T07:32:43;3.80;;;3.47;;
24485;SDS011;13449;49.374;8.584;2023-06-14T07:35:10;19.33;;;3.55;;
24485;SDS011;13449;49.374;8.584;2023-06-14T07:37:36;2.65;;;2.45;;
24485;SDS011;13449;49.374;8.584;2023-06-14T07:40:03;5.97;;;2.75;;
24485;SDS011;13449;49.374;8.584;2023-06-14T07:42:36;2.95;;;2.65;;
24485;SDS011;13449;49.374;8.584;2023-06-14T07:45:03;6.18;;;2.15;;
24485;SDS011;13449;49.374;8.584;2023-06-14T07:47:30;4.07;;;2.80;;
24485;SDS011;13449;49.374;8.584;2023-06-14T07:49:57;5.15;;;2.63;;
24485;SDS011;13449;49.374;8.584;2023-06-14T07:52:24;3.38;;;2.53;;
24485;SDS011;13449;49.374;8.584;2023-06-14T07:54:51;5.10;;;2.75;;
24485;SDS011;13449;49.374;8.584;2023-06-14T07:57:17;5.47;;;2.65;;
24485;SDS011;13449;49.374;8.584;2023-06-14T07:59:46;2.85;;;2.65;;
24485;SDS011;13449;49.374;8.584;2023-06-14T08:02:12;8.30;;;4.47;;
24485;SDS011;13449;49.374;8.584;2023-06-14T08:04:39;4.88;;;2.80;;
24485;SDS011;13449;49.374;8.584;2023-06-14T08:07:08;3.22;;;2.65;;
24485;SDS011;13449;49.374;8.584;2023-06-14T08:09:35;3.63;;;3.05;;
24485;SDS011;13449;49.374;8.584;2023-06-14T08:14:39;3.42;;;2.65;;
24485;SDS011;13449;49.374;8.584;2023-06-14T08:17:06;3.22;;;2.55;;
24485;SDS011;13449;49.374;8.584;2023-06-14T08:19:32;5.18;;;3.08;;
24485;SDS011;13449;49.374;8.584;2023-06-14T08:21:59;6.93;;;2.85;;
24485;SDS011;13449;49.374;8.584;2023-06-14T08:24:26;4.57;;;2.58;;
24485;SDS011;13449;49.374;8.584;2023-06-14T08:26:57;3.63;;;2.58;;
24485;SDS011;13449;49.374;8.584;2023-06-14T08:29:29;2.78;;;2.45;;
24485;SDS011;13449;49.374;8.584;2023-06-14T08:31:57;4.18;;;2.63;;
24485;SDS011;13449;49.374;8.584;2023-06-14T08:34:27;10.77;;;2.60;;
24485;SDS011;13449;49.374;8.584;2023-06-14T08:36:54;7.35;;;3.00;;
24485;SDS011;13449;49.374;8.584;2023-06-14T08:39:21;3.33;;;2.63;;
24485;SDS011;13449;49.374;8.584;2023-06-14T08:41:48;7.97;;;2.17;;
24485;SDS011;13449;49.374;8.584;2023-06-14T08:44:17;8.25;;;3.55;;
24485;SDS011;13449;49.374;8.584;2023-06-14T08:46:44;3.50;;;2.63;;
24485;SDS011;13449;49.374;8.584;2023-06-14T08:49:11;2.20;;;1.98;;
24485;SDS011;13449;49.374;8.584;2023-06-14T08:51:39;5.10;;;2.17;;
24485;SDS011;13449;49.374;8.584;2023-06-14T08:54:07;3.67;;;2.20;;
24485;SDS011;13449;49.374;8.584;2023-06-14T08:56:36;2.33;;;2.13;;
24485;SDS011;13449;49.374;8.584;2023-06-14T08:59:04;3.90;;;2.72;;
24485;SDS011;13449;49.374;8.584;2023-06-14T09:01:36;3.70;;;2.22;;
24485;SDS011;13449;49.374;8.584;2023-06-14T09:04:03;3.17;;;1.93;;
24485;SDS011;13449;49.374;8.584;2023-06-14T09:06:31;5.18;;;1.98;;
24485;SDS011;13449;49.374;8.584;2023-06-14T09:08:59;7.03;;;1.98;;
24485;SDS011;13449;49.374;8.584;2023-06-14T09:11:25;6.43;;;2.22;;
24485;SDS011;13449;49.374;8.584;2023-06-14T09:13:53;4.25;;;2.88;;
24485;SDS011;13449;49.374;8.584;2023-06-14T09:16:19;8.00;;;2.15;;
24485;SDS011;13449;49.374;8.584;2023-06-14T09:18:46;6.60;;;2.17;;
24485;SDS011;13449;49.374;8.584;2023-06-14T09:21:17;2.30;;;2.10;;
24485;SDS011;13449;49.374;8.584;2023-06-14T09:23:47;1.92;;;1.65;;
24485;SDS011;13449;49.374;8.584;2023-06-14T09:26:15;5.10;;;2.30;;
24485;SDS011;13449;49.374;8.584;2023-06-14T09:28:49;2.67;;;2.47;;
24485;SDS011;13449;49.374;8.584;2023-06-14T09:31:17;14.45;;;2.67;;
24485;SDS011;13449;49.374;8.584;2023-06-14T09:36:16;3.78;;;2.22;;
24485;SDS011;13449;49.374;8.584;2023-06-14T09:38:52;2.95;;;2.15;;
24485;SDS011;13449;49.374;8.584;2023-06-14T09:44:00;2.40;;;1.92;;
24485;SDS011;13449;49.374;8.584;2023-06-14T09:46:33;10.25;;;1.90;;
24485;SDS011;13449;49.374;8.584;2023-06-14T09:49:01;4.10;;;2.10;;
24485;SDS011;13449;49.374;8.584;2023-06-14T09:51:29;3.88;;;2.28;;
24485;SDS011;13449;49.374;8.584;2023-06-14T09:54:00;4.25;;;1.95;;
24485;SDS011;13449;49.374;8.584;2023-06-14T09:56:31;4.75;;;1.80;;
24485;SDS011;13449;49.374;8.584;2023-06-14T09:59:08;2.70;;;2.00;;
24485;SDS011;13449;49.374;8.584;2023-06-14T10:01:39;2.88;;;1.60;;
24485;SDS011;13449;49.374;8.584;2023-06-14T10:04:09;3.83;;;1.73;;
24485;SDS011;13449;49.374;8.584;2023-06-14T10:06:39;6.07;;;1.75;;
24485;SDS011;13449;49.374;8.584;2023-06-14T10:09:08;2.40;;;1.60;;
24485;SDS011;13449;49.374;8.584;2023-06-14T10:11:36;2.35;;;1.55;;
24485;SDS011;13449;49.374;8.584;2023-06-14T10:14:04;1.85;;;1.70;;
24485;SDS011;13449;49.374;8.584;2023-06-14T10:16:39;3.05;;;1.92;;
24485;SDS011;13449;49.374;8.584;2023-06-14T10:22:10;12.02;;;2.90;;
24485;SDS011;13449;49.374;8.584;2023-06-14T10:24:42;3.30;;;1.85;;
24485;SDS011;13449;49.374;8.584;2023-06-14T10:27:14;3.65;;;2.03;;
24485;SDS011;13449;49.374;8.584;2023-06-14T10:32:28;3.65;;;2.05;;
24485;SDS011;13449;49.374;8.584;2023-06-14T10:35:01;5.28;;;2.92;;
24485;SDS011;13449;49.374;8.584;2023-06-14T10:37:32;6.53;;;2.28;;
24485;SDS011;13449;49.374;8.584;2023-06-14T10:39:58;7.00;;;2.95;;
24485;SDS011;13449;49.374;8.584;2023-06-14T10:42:31;6.93;;;2.00;;
24485;SDS011;13449;49.374;8.584;2023-06-14T10:44:58;3.10;;;1.95;;
24485;SDS011;13449;49.374;8.584;2023-06-14T10:47:35;9.45;;;2.00;;
24485;SDS011;13449;49.374;8.584;2023-06-14T10:50:06;7.82;;;2.72;;
24485;SDS011;13449;49.374;8.584;2023-06-14T11:00:21;5.78;;;2.50;;
24485;SDS011;13449;49.374;8.584;2023-06-14T11:05:41;6.53;;;2.55;;
24485;SDS011;13449;49.374;8.584;2023-06-14T11:10:47;3.17;;;2.58;;
24485;SDS011;13449;49.374;8.584;2023-06-14T11:13:15;2.55;;;2.08;;
24485;SDS011;13449;49.374;8.584;2023-06-14T11:15:45;2.72;;;1.60;;
24485;SDS011;13449;49.374;8.584;2023-06-14T11:18:14;2.60;;;2.40;;
24485;SDS011;13449;49.374;8.584;2023-06-14T11:20:42;5.88;;;2.10;;
24485;SDS011;13449;49.374;8.584;2023-06-14T11:23:13;6.43;;;2.38;;
24485;SDS011;13449;49.374;8.584;2023-06-14T11:25:42;3.03;;;2.13;;
24485;SDS011;13449;49.374;8.584;2023-06-14T11:28:18;2.15;;;1.95;;
24485;SDS011;13449;49.374;8.584;2023-06-14T11:30:46;7.53;;;2.38;;
24485;SDS011;13449;49.374;8.584;2023-06-14T11:33:16;2.30;;;1.83;;
24485;SDS011;13449;49.374;8.584;2023-06-14T11:35:46;3.58;;;2.67;;
24485;SDS011;13449;49.374;8.584;2023-06-14T11:38:15;5.80;;;3.13;;
24485;SDS011;13449;49.374;8.584;2023-06-14T11:40:41;4.55;;;2.13;;
24485;SDS011;13449;49.374;8.584;2023-06-14T11:43:10;1.50;;;1.40;;
24485;SDS011;13449;49.374;8.584;2023-06-14T11:45:40;7.22;;;2.30;;
24485;SDS011;13449;49.374;8.584;2023-06-14T11:48:06;3.53;;;2.45;;
24485;SDS011;13449;49.374;8.584;2023-06-14T11:50:33;2.60;;;1.85;;
24485;SDS011;13449;49.374;8.584;2023-06-14T11:53:06;3.05;;;2.28;;
24485;SDS011;13449;49.374;8.584;2023-06-14T11:55:37;4.55;;;2.15;;
24485;SDS011;13449;49.374;8.584;2023-06-14T11:58:05;5.78;;;2.35;;
24485;SDS011;13449;49.374;8.584;2023-06-14T12:00:34;4.57;;;2.15;;
24485;SDS011;13449;49.374;8.584;2023-06-14T12:03:05;3.60;;;2.15;;
24485;SDS011;13449;49.374;8.584;2023-06-14T12:05:33;2.88;;;1.83;;
24485;SDS011;13449;49.374;8.584;2023-06-14T12:08:01;4.50;;;2.20;;
24485;SDS011;13449;49.374;8.584;2023-06-14T12:10:29;2.17;;;1.88;;
24485;SDS011;13449;49.374;8.584;2023-06-14T12:12:57;3.70;;;1.77;;
24485;SDS011;13449;49.374;8.584;2023-06-14T12:15:27;1.77;;;1.58;;
24485;SDS011;13449;49.374;8.584;2023-06-14T12:17:56;4.32;;;1.90;;
24485;SDS011;13449;49.374;8.584;2023-06-14T12:20:30;4.68;;;1.80;;
24485;SDS011;13449;49.374;8.584;2023-06-14T12:23:02;5.88;;;2.30;;
24485;SDS011;13449;49.374;8.584;2023-06-14T12:25:30;2.33;;;2.03;;
24485;SDS011;13449;49.374;8.584;2023-06-14T12:27:59;3.03;;;2.10;;
24485;SDS011;13449;49.374;8.584;2023-06-14T12:30:29;1.90;;;1.80;;
24485;SDS011;13449;49.374;8.584;2023-06-14T12:32:56;3.33;;;1.83;;
24485;SDS011;13449;49.374;8.584;2023-06-14T12:35:25;2.45;;;2.25;;
24485;SDS011;13449;49.374;8.584;2023-06-14T12:37:51;2.72;;;1.83;;
24485;SDS011;13449;49.374;8.584;2023-06-14T12:40:21;3.15;;;1.90;;
24485;SDS011;13449;49.374;8.584;2023-06-14T12:42:47;2.00;;;1.80;;
24485;SDS011;13449;49.374;8.584;2023-06-14T12:45:14;5.28;;;1.90;;
24485;SDS011;13449;49.374;8.584;2023-06-14T12:47:42;2.10;;;1.90;;
24485;SDS011;13449;49.374;8.584;2023-06-14T12:50:08;1.85;;;1.58;;
24485;SDS011;13449;49.374;8.584;2023-06-14T12:52:38;10.48;;;4.18;;
24485;SDS011;13449;49.374;8.584;2023-06-14T12:55:06;5.50;;;2.30;;
24485;SDS011;13449;49.374;8.584;2023-06-14T12:57:35;2.30;;;2.10;;
24485;SDS011;13449;49.374;8.584;2023-06-14T13:00:03;5.30;;;2.28;;
24485;SDS011;13449;49.374;8.584;2023-06-14T13:02:33;4.75;;;1.85;;
24485;SDS011;13449;49.374;8.584;2023-06-14T13:05:01;3.15;;;2.00;;
24485;SDS011;13449;49.374;8.584;2023-06-14T13:07:30;3.65;;;2.45;;
24485;SDS011;13449;49.374;8.584;2023-06-14T13:09:57;4.35;;;2.17;;
24485;SDS011;13449;49.374;8.584;2023-06-14T13:12:23;4.07;;;2.40;;
24485;SDS011;13449;49.374;8.584;2023-06-14T13:14:50;2.30;;;2.10;;
24485;SDS011;13449;49.374;8.584;2023-06-14T13:17:16;2.85;;;2.20;;
24485;SDS011;13449;49.374;8.584;2023-06-14T13:19:43;8.35;;;2.38;;
24485;SDS011;13449;49.374;8.584;2023-06-14T13:22:10;4.47;;;2.20;;
24485;SDS011;13449;49.374;8.584;2023-06-14T13:24:36;3.40;;;2.30;;
24485;SDS011;13449;49.374;8.584;2023-06-14T13:27:03;2.42;;;2.13;;
24485;SDS011;13449;49.374;8.584;2023-06-14T13:29:30;13.98;;;2.30;;
24485;SDS011;13449;49.374;8.584;2023-06-14T13:31:57;2.70;;;1.92;;
24485;SDS011;13449;49.374;8.584;2023-06-14T13:34:23;4.63;;;2.10;;
24485;SDS011;13449;49.374;8.584;2023-06-14T13:36:52;11.60;;;2.20;;
24485;SDS011;13449;49.374;8.584;2023-06-14T13:39:20;3.33;;;1.95;;
24485;SDS011;13449;49.374;8.584;2023-06-14T13:41:49;3.83;;;1.90;;
24485;SDS011;13449;49.374;8.584;2023-06-14T13:46:47;4.53;;;2.60;;
24485;SDS011;13449;49.374;8.584;2023-06-14T13:49:13;5.28;;;2.72;;
24485;SDS011;13449;49.374;8.584;2023-06-14T13:51:40;3.05;;;2.03;;
24485;SDS011;13449;49.374;8.584;2023-06-14T13:54:07;4.28;;;2.38;;
24485;SDS011;13449;49.374;8.584;2023-06-14T13:56:33;4.65;;;2.30;;
24485;SDS011;13449;49.374;8.584;2023-06-14T13:59:00;3.25;;;1.90;;
24485;SDS011;13449;49.374;8.584;2023-06-14T14:01:26;2.72;;;2.22;;
24485;SDS011;13449;49.374;8.584;2023-06-14T14:03:55;10.70;;;2.53;;
24485;SDS011;13449;49.374;8.584;2023-06-14T14:06:21;7.10;;;2.83;;
24485;SDS011;13449;49.374;8.584;2023-06-14T14:08:48;3.42;;;2.17;;
24485;SDS011;13449;49.374;8.584;2023-06-14T14:11:15;2.17;;;2.00;;
24485;SDS011;13449;49.374;8.584;2023-06-14T14:13:42;4.20;;;2.05;;
24485;SDS011;13449;49.374;8.584;2023-06-14T14:16:09;4.35;;;2.45;;
24485;SDS011;13449;49.374;8.584;2023-06-14T14:18:36;3.40;;;2.13;;
24485;SDS011;13449;49.374;8.584;2023-06-14T14:21:04;2.15;;;1.95;;
24485;SDS011;13449;49.374;8.584;2023-06-14T14:23:31;4.35;;;2.22;;
24485;SDS011;13449;49.374;8.584;2023-06-14T14:25:57;3.33;;;2.50;;
24485;SDS011;13449;49.374;8.584;2023-06-14T14:28:27;3.78;;;2.33;;
24485;SDS011;13449;49.374;8.584;2023-06-14T14:30:54;3.85;;;2.10;;
24485;SDS011;13449;49.374;8.584;2023-06-14T14:33:21;2.95;;;2.22;;
24485;SDS011;13449;49.374;8.584;2023-06-14T14:35:50;4.85;;;2.35;;
24485;SDS011;13449;49.374;8.584;2023-06-14T14:38:19;2.72;;;2.00;;
24485;SDS011;13449;49.374;8.584;2023-06-14T14:40:46;4.72;;;2.60;;
24485;SDS011;13449;49.374;8.584;2023-06-14T14:43:13;6.00;;;2.38;;
24485;SDS011;13449;49.374;8.584;2023-06-14T14:45:40;2.83;;;1.90;;
24485;SDS011;13449;49.374;8.584;2023-06-14T14:48:06;3.58;;;2.90;;
24485;SDS011;13449;49.374;8.584;2023-06-14T14:50:33;4.97;;;2.25;;
24485;SDS011;13449;49.374;8.584;2023-06-14T14:53:00;3.13;;;2.10;;
24485;SDS011;13449;49.374;8.584;2023-06-14T14:55:26;3.00;;;2.55;;
24485;SDS011;13449;49.374;8.584;2023-06-14T14:57:53;3.67;;;2.22;;
24485;SDS011;13449;49.374;8.584;2023-06-14T15:00:20;8.13;;;2.03;;
24485;SDS011;13449;49.374;8.584;2023-06-14T15:02:49;1.80;;;1.67;;
24485;SDS011;13449;49.374;8.584;2023-06-14T15:05:18;2.78;;;2.13;;
24485;SDS011;13449;49.374;8.584;2023-06-14T15:07:46;5.28;;;2.28;;
24485;SDS011;13449;49.374;8.584;2023-06-14T15:10:12;3.40;;;1.98;;
24485;SDS011;13449;49.374;8.584;2023-06-14T15:12:40;2.90;;;2.47;;
24485;SDS011;13449;49.374;8.584;2023-06-14T15:15:07;11.73;;;3.05;;
24485;SDS011;13449;49.374;8.584;2023-06-14T15:17:35;6.10;;;1.80;;
24485;SDS011;13449;49.374;8.584;2023-06-14T15:20:02;5.68;;;2.10;;
24485;SDS011;13449;49.374;8.584;2023-06-14T15:22:29;2.88;;;2.50;;
24485;SDS011;13449;49.374;8.584;2023-06-14T15:24:55;3.20;;;2.10;;
24485;SDS011;13449;49.374;8.584;2023-06-14T15:27:24;4.97;;;2.45;;
24485;SDS011;13449;49.374;8.584;2023-06-14T15:29:51;3.28;;;2.33;;